createdAt,value
2018-01-12T00:00:02.102Z,69.70
2018-01-12T00:01:03.133Z,69.60
2018-01-12T00:02:05.007Z,69.50
2018-01-12T00:03:06.864Z,69.50
2018-01-12T00:04:08.002Z,69.40
2018-01-12T00:05:09.132Z,69.50
2018-01-12T00:06:10.932Z,69.60
2018-01-12T00:07:12.028Z,69.50
2018-01-12T00:08:13.124Z,69.70
2018-01-12T00:09:14.229Z,69.40
2018-01-12T00:10:15.315Z,69.70
2018-01-12T00:11:16.388Z,69.60
2018-01-12T00:12:17.507Z,69.60
2018-01-12T00:13:18.619Z,69.80
2018-01-12T00:14:19.681Z,69.70
2018-01-12T00:15:20.782Z,69.80
2018-01-12T00:16:21.871Z,69.80
2018-01-12T00:17:22.947Z,69.70
2018-01-12T00:18:24.068Z,69.90
2018-01-12T00:19:25.128Z,69.90
2018-01-12T00:20:26.199Z,69.70
2018-01-12T00:21:28.034Z,69.80
2018-01-12T00:22:29.119Z,69.90
2018-01-12T00:23:30.220Z,69.90
2018-01-12T00:24:31.283Z,69.90
2018-01-12T00:25:32.359Z,69.70
2018-01-12T00:26:33.463Z,69.70
2018-01-12T00:27:35.299Z,69.70
2018-01-12T00:28:36.384Z,69.70
2018-01-12T00:29:37.771Z,69.80
2018-01-12T00:30:38.846Z,69.80
2018-01-12T00:31:39.910Z,69.70
2018-01-12T00:32:41.708Z,69.80
2018-01-12T00:33:42.955Z,69.80
2018-01-12T00:34:44.036Z,69.80
2018-01-12T00:35:45.109Z,70.00
2018-01-12T00:36:46.191Z,69.80
2018-01-12T00:37:47.271Z,69.70
2018-01-12T00:38:48.398Z,69.80
2018-01-12T00:39:49.490Z,69.90
2018-01-12T00:40:51.319Z,70.00
2018-01-12T00:41:52.412Z,70.00
2018-01-12T00:42:53.490Z,70.00
2018-01-12T00:43:54.759Z,70.10
2018-01-12T00:44:55.872Z,70.20
2018-01-12T00:45:56.967Z,70.20
2018-01-12T00:46:58.082Z,70.10
2018-01-12T00:47:59.162Z,70.10
2018-01-12T00:49:01.003Z,70.00
2018-01-12T00:50:02.099Z,70.00
2018-01-12T00:51:03.179Z,69.90
2018-01-12T00:52:04.995Z,70.30
2018-01-12T00:53:06.075Z,70.10
2018-01-12T00:54:07.192Z,70.20
2018-01-12T00:55:09.024Z,70.30
2018-01-12T00:56:10.128Z,70.20
2018-01-12T00:57:11.205Z,70.20
2018-01-12T00:58:13.040Z,70.20
2018-01-12T00:59:14.142Z,70.10
2018-01-12T01:00:15.224Z,70.10
2018-01-12T01:01:17.054Z,70.10
2018-01-12T01:02:18.147Z,70.10
2018-01-12T01:03:19.226Z,70.10
2018-01-12T01:04:20.296Z,70.10
2018-01-12T01:05:22.118Z,71.00
2018-01-12T01:06:23.943Z,70.20
2018-01-12T01:07:25.016Z,70.10
2018-01-12T01:08:26.129Z,70.20
2018-01-12T01:09:27.951Z,70.30
2018-01-12T01:10:29.020Z,70.10
2018-01-12T01:11:30.850Z,70.30
2018-01-12T01:12:31.923Z,70.20
2018-01-12T01:13:32.982Z,70.20
2018-01-12T01:14:34.059Z,70.20
2018-01-12T01:15:35.119Z,70.20
2018-01-12T01:16:36.203Z,70.20
2018-01-12T01:17:37.271Z,70.20
2018-01-12T01:18:41.231Z,70.30
2018-01-12T01:19:42.398Z,70.20
2018-01-12T01:20:43.470Z,70.20
2018-01-12T01:21:44.548Z,70.20
2018-01-12T01:22:45.616Z,70.20
2018-01-12T01:23:46.724Z,70.20
2018-01-12T01:24:47.814Z,70.10
2018-01-12T01:25:48.888Z,70.90
2018-01-12T01:26:50.723Z,70.90
2018-01-12T01:27:51.818Z,70.20
2018-01-12T01:28:53.033Z,70.10
2018-01-12T01:29:54.860Z,70.10
2018-01-12T01:30:56.671Z,70.20
2018-01-12T01:32:03.746Z,70.10
2018-01-12T01:33:04.834Z,70.10
2018-01-12T01:34:05.926Z,70.20
2018-01-12T01:35:07.766Z,70.20
2018-01-12T01:36:08.875Z,70.20
2018-01-12T01:37:09.980Z,70.20
2018-01-12T01:38:11.084Z,70.20
2018-01-12T01:39:12.166Z,70.20
2018-01-12T01:40:13.251Z,70.20
2018-01-12T01:41:15.083Z,70.30
2018-01-12T01:42:16.163Z,71.00
2018-01-12T01:43:17.267Z,70.20
2018-01-12T01:44:19.102Z,70.30
2018-01-12T01:45:20.192Z,70.20
2018-01-12T01:46:21.267Z,70.20
2018-01-12T01:47:22.348Z,70.20
2018-01-12T01:48:35.654Z,71.00
2018-01-12T01:49:36.732Z,70.20
2018-01-12T01:50:37.815Z,70.20
2018-01-12T01:51:38.900Z,70.20
2018-01-12T01:52:39.974Z,70.20
2018-01-12T01:53:41.035Z,70.20
2018-01-12T01:54:42.106Z,70.20
2018-01-12T01:55:43.209Z,70.20
2018-01-12T01:56:44.286Z,70.20
2018-01-12T01:57:46.106Z,70.30
2018-01-12T01:58:47.239Z,70.20
2018-01-12T01:59:48.319Z,70.20
2018-01-12T02:00:49.399Z,70.20
2018-01-12T02:01:50.531Z,70.20
2018-01-12T02:02:51.611Z,70.20
2018-01-12T02:03:52.682Z,70.20
2018-01-12T02:04:53.760Z,70.20
2018-01-12T02:05:54.894Z,70.20
2018-01-12T02:06:55.951Z,70.20
2018-01-12T02:07:57.777Z,70.20
2018-01-12T02:08:58.847Z,70.20
2018-01-12T02:09:59.911Z,70.20
2018-01-12T02:11:01.314Z,70.20
2018-01-12T02:12:02.380Z,70.20
2018-01-12T02:13:03.478Z,70.30
2018-01-12T02:14:04.535Z,70.30
2018-01-12T02:15:05.604Z,70.30
2018-01-12T02:16:07.003Z,70.20
2018-01-12T02:17:08.087Z,70.20
2018-01-12T02:18:10.479Z,70.20
2018-01-12T02:19:11.575Z,70.30
2018-01-12T02:20:12.659Z,70.30
2018-01-12T02:21:13.761Z,70.30
2018-01-12T02:22:14.843Z,70.30
2018-01-12T02:23:15.911Z,70.30
2018-01-12T02:24:17.726Z,70.40
2018-01-12T02:25:18.803Z,70.30
2018-01-12T02:26:20.631Z,70.40
2018-01-12T02:27:22.460Z,70.50
2018-01-12T02:28:23.560Z,70.10
2018-01-12T02:29:24.655Z,70.10
2018-01-12T02:30:25.740Z,70.30
2018-01-12T02:31:26.828Z,70.30
2018-01-12T02:32:27.916Z,70.30
2018-01-12T02:33:28.982Z,70.10
2018-01-12T02:34:30.076Z,70.00
2018-01-12T02:35:31.149Z,70.80
2018-01-12T02:36:32.972Z,70.00
2018-01-12T02:37:34.050Z,69.90
2018-01-12T02:38:35.123Z,70.00
2018-01-12T02:39:36.191Z,70.00
2018-01-12T02:40:38.020Z,70.40
2018-01-12T02:41:39.091Z,70.30
2018-01-12T02:42:40.899Z,70.40
2018-01-12T02:43:41.976Z,70.40
2018-01-12T02:44:43.799Z,70.40
2018-01-12T02:45:44.877Z,70.40
2018-01-12T02:46:45.950Z,70.20
2018-01-12T02:47:47.047Z,70.00
2018-01-12T02:48:48.132Z,70.10
2018-01-12T02:49:49.211Z,70.00
2018-01-12T02:50:50.300Z,69.80
2018-01-12T02:51:52.158Z,69.90
2018-01-12T02:52:53.241Z,69.90
2018-01-12T02:53:54.315Z,70.00
2018-01-12T02:54:56.137Z,70.00
2018-01-12T02:55:57.211Z,70.00
2018-01-12T02:56:58.296Z,70.10
2018-01-12T02:57:59.367Z,70.00
2018-01-12T02:59:01.179Z,70.00
2018-01-12T03:00:02.269Z,69.90
2018-01-12T03:01:03.347Z,70.10
2018-01-12T03:02:04.443Z,70.10
2018-01-12T03:03:06.256Z,70.20
2018-01-12T03:04:08.087Z,70.40
2018-01-12T03:05:09.178Z,70.30
2018-01-12T03:06:10.251Z,70.30
2018-01-12T03:07:11.366Z,70.30
2018-01-12T03:08:12.448Z,70.50
2018-01-12T03:09:13.532Z,70.30
2018-01-12T03:10:14.602Z,70.40
2018-01-12T03:11:16.435Z,70.20
2018-01-12T03:12:17.522Z,70.10
2018-01-12T03:13:18.601Z,70.10
2018-01-12T03:14:19.679Z,70.10
2018-01-12T03:15:20.754Z,70.00
2018-01-12T03:16:21.824Z,70.00
2018-01-12T03:17:22.904Z,70.10
2018-01-12T03:18:23.968Z,70.20
2018-01-12T03:19:25.047Z,70.30
2018-01-12T03:20:26.156Z,70.20
2018-01-12T03:21:27.226Z,70.40
2018-01-12T03:22:28.371Z,70.30
2018-01-12T03:23:29.440Z,70.30
2018-01-12T03:24:31.243Z,70.40
2018-01-12T03:25:32.306Z,70.30
2018-01-12T03:26:33.374Z,70.30
2018-01-12T03:27:34.447Z,70.30
2018-01-12T03:28:35.523Z,70.30
2018-01-12T03:29:37.346Z,70.40
2018-01-12T03:30:38.428Z,70.30
2018-01-12T03:31:39.736Z,70.30
2018-01-12T03:32:41.567Z,70.30
2018-01-12T03:33:42.650Z,70.30
2018-01-12T03:34:43.727Z,70.30
2018-01-12T03:35:44.802Z,70.30
2018-01-12T03:36:45.870Z,70.30
2018-01-12T03:37:46.948Z,70.30
2018-01-12T03:38:48.763Z,70.40
2018-01-12T03:39:49.832Z,70.30
2018-01-12T03:40:51.648Z,70.40
2018-01-12T03:41:52.719Z,70.30
2018-01-12T03:42:54.531Z,70.40
2018-01-12T03:43:55.607Z,70.30
2018-01-12T03:44:56.683Z,70.30
2018-01-12T03:45:57.767Z,70.30
2018-01-12T03:46:58.845Z,70.30
2018-01-12T03:47:59.955Z,70.30
2018-01-12T03:49:01.027Z,70.50
2018-01-12T03:50:02.098Z,70.30
2018-01-12T03:51:03.180Z,70.30
2018-01-12T03:52:04.258Z,70.30
2018-01-12T03:53:05.357Z,70.40
2018-01-12T03:54:06.435Z,70.40
2018-01-12T03:55:07.522Z,70.40
2018-01-12T03:56:08.616Z,70.40
2018-01-12T03:57:09.703Z,70.40
2018-01-12T03:58:11.532Z,70.40
2018-01-12T03:59:12.605Z,70.40
2018-01-12T04:00:13.688Z,70.40
2018-01-12T04:01:14.759Z,70.40
2018-01-12T04:02:16.586Z,70.40
2018-01-12T04:03:17.651Z,70.40
2018-01-12T04:04:18.725Z,70.40
2018-01-12T04:05:19.785Z,70.40
2018-01-12T04:06:20.875Z,70.40
2018-01-12T04:07:21.961Z,70.40
2018-01-12T04:08:23.022Z,70.30
2018-01-12T04:09:24.100Z,70.30
2018-01-12T04:10:25.167Z,70.40
2018-01-12T04:11:26.279Z,70.40
2018-01-12T04:12:27.380Z,70.40
2018-01-12T04:13:28.460Z,70.40
2018-01-12T04:14:30.291Z,70.40
2018-01-12T04:15:31.363Z,70.40
2018-01-12T04:16:32.431Z,70.40
2018-01-12T04:17:33.563Z,70.40
2018-01-12T04:18:34.642Z,70.50
2018-01-12T04:19:36.450Z,70.40
2018-01-12T04:20:37.527Z,70.40
2018-01-12T04:21:38.600Z,70.40
2018-01-12T04:22:39.679Z,70.20
2018-01-12T04:23:40.758Z,70.10
2018-01-12T04:24:41.822Z,70.10
2018-01-12T04:25:42.898Z,70.10
2018-01-12T04:26:43.979Z,70.10
2018-01-12T04:27:45.044Z,70.00
2018-01-12T04:28:46.868Z,69.90
2018-01-12T04:29:47.931Z,70.00
2018-01-12T04:30:49.752Z,69.90
2018-01-12T04:31:50.827Z,69.90
2018-01-12T04:32:51.903Z,70.00
2018-01-12T04:33:53.000Z,70.00
2018-01-12T04:34:54.075Z,70.00
2018-01-12T04:35:55.182Z,70.40
2018-01-12T04:36:56.262Z,70.00
2018-01-12T04:37:57.359Z,70.20
2018-01-12T04:38:59.236Z,70.40
2018-01-12T04:40:00.307Z,70.00
2018-01-12T04:41:01.395Z,70.10
2018-01-12T04:42:02.483Z,70.10
2018-01-12T04:43:03.568Z,70.10
2018-01-12T04:44:04.637Z,70.20
2018-01-12T04:45:05.725Z,70.40
2018-01-12T04:46:06.808Z,70.40
2018-01-12T04:47:07.890Z,70.30
2018-01-12T04:48:08.974Z,69.90
2018-01-12T04:49:10.039Z,70.40
2018-01-12T04:50:11.122Z,70.40
2018-01-12T04:51:12.286Z,70.40
2018-01-12T04:52:13.431Z,71.60
2018-01-12T04:53:14.530Z,71.10
2018-01-12T04:54:15.603Z,70.50
2018-01-12T04:55:16.678Z,70.50
2018-01-12T04:56:18.512Z,70.50
2018-01-12T04:57:19.592Z,70.50
2018-01-12T04:58:20.672Z,70.80
2018-01-12T04:59:21.773Z,70.80
2018-01-12T05:00:22.896Z,70.60
2018-01-12T05:01:23.980Z,70.60
2018-01-12T05:02:25.069Z,71.20
2018-01-12T05:03:26.164Z,71.50
2018-01-12T05:04:27.260Z,70.60
2018-01-12T05:05:28.329Z,70.80
2018-01-12T05:06:29.441Z,70.50
2018-01-12T05:07:30.524Z,70.80
2018-01-12T05:08:31.615Z,70.50
2018-01-12T05:09:33.435Z,70.50
2018-01-12T05:10:34.524Z,70.50
2018-01-12T05:11:35.605Z,70.50
2018-01-12T05:12:37.443Z,70.50
2018-01-12T05:13:38.525Z,70.50
2018-01-12T05:14:39.611Z,70.50
2018-01-12T05:15:40.689Z,70.50
2018-01-12T05:16:41.785Z,70.50
2018-01-12T05:17:42.876Z,70.30
2018-01-12T05:18:44.688Z,70.20
2018-01-12T05:19:46.525Z,70.20
2018-01-12T05:20:47.607Z,70.00
2018-01-12T05:21:48.703Z,70.00
2018-01-12T05:22:50.524Z,69.80
2018-01-12T05:23:51.603Z,69.80
2018-01-12T05:24:52.682Z,69.70
2018-01-12T05:25:53.759Z,70.00
2018-01-12T05:26:54.831Z,69.90
2018-01-12T05:27:55.924Z,70.00
2018-01-12T05:28:57.035Z,69.80
2018-01-12T05:29:58.858Z,69.60
2018-01-12T05:30:59.947Z,69.60
2018-01-12T05:32:01.115Z,69.80
2018-01-12T05:33:02.191Z,69.70
2018-01-12T05:34:10.130Z,69.60
2018-01-12T05:35:11.194Z,69.60
2018-01-12T05:36:12.277Z,69.50
2018-01-12T05:37:13.351Z,69.50
2018-01-12T05:38:14.427Z,69.40
2018-01-12T05:39:15.540Z,69.50
2018-01-12T05:40:16.632Z,69.60
2018-01-12T05:41:17.723Z,69.80
2018-01-12T05:42:18.800Z,69.70
2018-01-12T05:43:19.871Z,69.70
2018-01-12T05:44:20.959Z,69.60
2018-01-12T05:45:22.059Z,70.40
2018-01-12T05:46:23.136Z,69.40
2018-01-12T05:47:24.207Z,69.30
2018-01-12T05:48:26.015Z,69.10
2018-01-12T05:49:27.087Z,69.10
2018-01-12T05:50:28.160Z,69.30
2018-01-12T05:51:29.226Z,69.40
2018-01-12T05:52:30.299Z,69.30
2018-01-12T05:53:31.372Z,70.00
2018-01-12T05:54:32.451Z,69.20
2018-01-12T05:55:34.263Z,69.30
2018-01-12T05:56:35.403Z,69.20
2018-01-12T05:57:36.463Z,69.10
2018-01-12T05:58:37.528Z,69.10
2018-01-12T05:59:38.835Z,69.30
2018-01-12T06:00:39.919Z,69.10
2018-01-12T06:03:27.939Z,69.40
2018-01-12T06:04:42.126Z,69.60
2018-01-12T06:05:55.538Z,69.50
2018-01-12T06:06:56.590Z,69.70
2018-01-12T06:07:57.667Z,69.50
2018-01-12T06:08:58.732Z,69.50
2018-01-12T06:10:00.636Z,69.50
2018-01-12T06:11:01.704Z,69.40
2018-01-12T06:12:02.775Z,69.50
2018-01-12T06:13:03.874Z,69.30
2018-01-12T06:14:04.938Z,69.90
2018-01-12T06:15:06.023Z,69.20
2018-01-12T06:16:07.138Z,69.20
2018-01-12T06:17:08.951Z,69.30
2018-01-12T06:18:10.775Z,70.00
2018-01-12T06:19:11.859Z,69.10
2018-01-12T06:20:12.943Z,69.20
2018-01-12T06:21:14.044Z,69.10
2018-01-12T06:22:15.115Z,69.50
2018-01-12T06:23:16.184Z,69.60
2018-01-12T06:24:17.263Z,69.60
2018-01-12T06:25:18.348Z,69.70
2018-01-12T06:26:19.427Z,69.70
2018-01-12T06:27:20.515Z,69.70
2018-01-12T06:28:21.583Z,69.70
2018-01-12T06:29:22.662Z,69.60
2018-01-12T06:30:23.746Z,69.50
2018-01-12T06:31:24.811Z,69.50
2018-01-12T06:32:25.882Z,70.00
2018-01-12T06:33:27.705Z,69.90
2018-01-12T06:34:29.531Z,69.60
2018-01-12T06:35:30.607Z,69.50
2018-01-12T06:36:31.699Z,69.60
2018-01-12T06:37:33.540Z,70.60
2018-01-12T06:38:34.667Z,69.70
2018-01-12T06:39:35.743Z,69.50
2018-01-12T06:40:37.596Z,69.50
2018-01-12T06:41:38.690Z,69.60
2018-01-12T06:42:39.762Z,69.60
2018-01-12T06:43:40.834Z,69.50
2018-01-12T06:44:41.908Z,69.50
2018-01-12T06:45:42.978Z,69.50
2018-01-12T06:46:44.055Z,69.50
2018-01-12T06:47:45.152Z,69.60
2018-01-12T06:48:46.219Z,69.40
2018-01-12T06:49:48.137Z,69.40
2018-01-12T06:50:49.206Z,69.30
2018-01-12T06:51:50.319Z,69.10
2018-01-12T06:52:51.362Z,69.30
2018-01-12T06:53:52.434Z,68.90
2018-01-12T06:54:53.519Z,69.00
2018-01-12T06:55:54.671Z,68.90
2018-01-12T06:56:55.748Z,68.50
2018-01-12T06:57:56.810Z,68.40
2018-01-12T06:58:57.904Z,68.30
2018-01-12T06:59:58.983Z,68.40
2018-01-12T07:01:00.081Z,68.40
2018-01-12T07:02:01.175Z,68.60
2018-01-12T07:03:03.005Z,69.20
2018-01-12T07:04:04.082Z,68.40
2018-01-12T07:05:05.185Z,68.40
2018-01-12T07:06:07.674Z,68.60
2018-01-12T07:07:08.759Z,68.60
2018-01-12T07:08:09.830Z,68.70
2018-01-12T07:09:10.941Z,68.50
2018-01-12T07:10:12.033Z,68.40
2018-01-12T07:11:13.141Z,68.40
2018-01-12T07:12:14.864Z,68.50
2018-01-12T07:13:15.944Z,68.30
2018-01-12T07:14:17.164Z,68.10
2018-01-12T07:15:18.260Z,68.30
2018-01-12T07:16:19.328Z,68.30
2018-01-12T07:17:20.411Z,68.30
2018-01-12T07:18:21.542Z,68.30
2018-01-12T07:19:22.619Z,68.30
2018-01-12T07:20:35.930Z,68.10
2018-01-12T07:21:49.319Z,68.20
2018-01-12T07:23:02.609Z,68.10
2018-01-12T07:24:03.677Z,68.20
2018-01-12T07:25:05.451Z,68.20
2018-01-12T07:26:06.583Z,68.30
2018-01-12T07:27:07.671Z,68.40
2018-01-12T07:28:08.747Z,68.60
2018-01-12T07:29:09.823Z,68.30
2018-01-12T07:30:10.911Z,68.30
2018-01-12T07:31:12.012Z,68.30
2018-01-12T07:32:13.098Z,68.40
2018-01-12T07:33:14.188Z,69.20
2018-01-12T07:34:15.328Z,68.50
2018-01-12T07:35:16.426Z,68.40
2018-01-12T07:36:18.187Z,68.40
2018-01-12T07:37:19.273Z,68.40
2018-01-12T07:38:20.343Z,68.60
2018-01-12T07:39:21.472Z,68.60
2018-01-12T07:40:22.511Z,68.60
2018-01-12T07:41:23.583Z,68.70
2018-01-12T07:42:24.667Z,68.50
2018-01-12T07:43:25.749Z,68.50
2018-01-12T07:44:26.902Z,68.50
2018-01-12T07:45:27.995Z,68.00
2018-01-12T07:46:29.075Z,67.90
2018-01-12T07:47:30.135Z,67.90
2018-01-12T07:48:31.247Z,68.00
2018-01-12T07:49:32.345Z,68.00
2018-01-12T07:50:33.427Z,68.30
2018-01-12T07:51:34.510Z,68.20
2018-01-12T07:52:41.613Z,68.20
2018-01-12T07:53:42.716Z,68.10
2018-01-12T07:54:43.803Z,68.20
2018-01-12T07:55:44.891Z,67.90
2018-01-12T07:56:45.967Z,67.80
2018-01-12T07:57:47.039Z,67.80
2018-01-12T07:58:48.855Z,68.00
2018-01-12T07:59:49.943Z,67.90
2018-01-12T08:00:57.196Z,67.80
2018-01-12T08:02:05.075Z,67.90
2018-01-12T08:03:06.186Z,67.90
2018-01-12T08:04:07.331Z,68.60
2018-01-12T08:05:09.174Z,68.00
2018-01-12T08:06:10.267Z,67.90
2018-01-12T08:07:11.379Z,67.70
2018-01-12T08:08:13.199Z,67.70
2018-01-12T08:09:14.314Z,67.70
2018-01-12T08:10:15.406Z,67.80
2018-01-12T08:11:16.478Z,68.00
2018-01-12T08:12:17.550Z,68.10
2018-01-12T08:13:18.627Z,67.80
2018-01-12T08:14:19.736Z,67.70
2018-01-12T08:15:20.826Z,67.60
2018-01-12T08:16:21.903Z,67.40
2018-01-12T08:17:22.979Z,67.40
2018-01-12T08:18:24.102Z,67.40
2018-01-12T08:19:25.187Z,67.50
2018-01-12T08:20:26.253Z,67.30
2018-01-12T08:21:27.350Z,67.50
2018-01-12T08:22:28.449Z,67.40
2018-01-12T08:23:29.551Z,67.30
2018-01-12T08:24:30.625Z,67.30
2018-01-12T08:25:31.713Z,67.20
2018-01-12T08:26:32.820Z,67.20
2018-01-12T08:27:33.907Z,67.00
2018-01-12T08:28:34.974Z,66.70
2018-01-12T08:29:37.582Z,66.70
2018-01-12T08:30:38.671Z,66.60
2018-01-12T08:31:39.764Z,66.60
2018-01-12T08:32:40.861Z,66.30
2018-01-12T08:33:41.926Z,66.40
2018-01-12T08:34:43.010Z,66.20
2018-01-12T08:35:44.100Z,66.50
2018-01-12T08:36:45.274Z,66.60
2018-01-12T08:37:46.372Z,66.60
2018-01-12T08:38:47.458Z,66.80
2018-01-12T08:39:48.534Z,66.20
2018-01-12T08:40:49.663Z,66.40
2018-01-12T08:41:50.733Z,67.30
2018-01-12T08:42:51.832Z,66.20
2018-01-12T08:43:52.900Z,66.20
2018-01-12T08:44:53.984Z,66.50
2018-01-12T08:45:55.050Z,66.10
2018-01-12T08:46:56.138Z,65.80
2018-01-12T08:47:57.217Z,65.90
2018-01-12T08:48:59.026Z,65.80
2018-01-12T08:50:00.131Z,65.80
2018-01-12T08:51:01.194Z,65.80
2018-01-12T08:52:02.324Z,65.80
2018-01-12T08:53:03.399Z,65.80
2018-01-12T08:54:04.488Z,65.80
2018-01-12T08:55:05.555Z,65.60
2018-01-12T08:56:07.363Z,66.00
2018-01-12T08:57:08.434Z,65.90
2018-01-12T08:58:09.508Z,65.60
2018-01-12T08:59:10.598Z,65.90
2018-01-12T09:00:12.430Z,65.90
2018-01-12T09:01:13.534Z,65.80
2018-01-12T09:02:14.618Z,65.20
2018-01-12T09:03:15.723Z,65.30
2018-01-12T09:04:16.782Z,65.50
2018-01-12T09:05:18.602Z,65.20
2018-01-12T09:06:19.699Z,65.20
2018-01-12T09:07:20.806Z,65.30
2018-01-12T09:08:22.644Z,65.50
2018-01-12T09:09:23.744Z,65.40
2018-01-12T09:10:24.816Z,65.50
2018-01-12T09:11:25.896Z,65.80
2018-01-12T09:12:26.981Z,65.80
2018-01-12T09:13:40.442Z,65.80
2018-01-12T09:14:48.535Z,65.70
2018-01-12T09:16:01.993Z,65.40
2018-01-12T09:17:03.427Z,65.30
2018-01-12T09:18:04.495Z,65.40
2018-01-12T09:19:17.967Z,65.40
2018-01-12T09:20:19.076Z,65.70
2018-01-12T09:21:23.075Z,65.40
2018-01-12T09:22:25.975Z,65.30
2018-01-12T09:23:27.871Z,64.90
2018-01-12T09:24:28.951Z,65.20
2018-01-12T09:25:30.048Z,65.10
2018-01-12T09:26:31.107Z,65.00
2018-01-12T09:27:32.948Z,65.00
2018-01-12T09:28:34.043Z,65.00
2018-01-12T09:29:35.875Z,64.20
2018-01-12T09:30:36.963Z,64.70
2018-01-12T09:31:38.057Z,64.60
2018-01-12T09:32:39.932Z,64.80
2018-01-12T09:33:46.926Z,64.70
2018-01-12T09:35:03.943Z,64.60
2018-01-12T09:36:05.023Z,64.50
2018-01-12T09:37:06.082Z,64.80
2018-01-12T09:38:16.187Z,65.10
2018-01-12T09:39:30.317Z,64.70
2018-01-12T09:40:46.835Z,64.60
2018-01-12T09:41:48.680Z,64.50
2018-01-12T09:42:49.758Z,64.50
2018-01-12T09:43:50.824Z,64.90
2018-01-12T09:44:52.672Z,65.40
2018-01-12T09:45:53.752Z,65.40
2018-01-12T09:47:07.234Z,65.40
2018-01-12T09:48:36.294Z,65.00
2018-01-12T09:49:46.666Z,64.90
2018-01-12T09:50:47.830Z,65.10
2018-01-12T09:51:49.042Z,64.60
2018-01-12T09:52:50.156Z,64.60
2018-01-12T09:53:51.298Z,64.30
2018-01-12T09:54:52.413Z,64.30
2018-01-12T09:55:53.502Z,64.50
2018-01-12T09:56:54.590Z,64.30
2018-01-12T09:57:55.699Z,64.60
2018-01-12T09:59:02.742Z,65.40
2018-01-12T10:00:04.611Z,64.50
2018-01-12T10:01:12.878Z,64.50
2018-01-12T10:02:14.118Z,64.60
2018-01-12T10:03:15.791Z,64.70
2018-01-12T10:04:16.862Z,64.90
2018-01-12T10:05:17.958Z,65.00
2018-01-12T10:06:19.069Z,64.70
2018-01-12T10:07:20.189Z,64.40
2018-01-12T10:08:23.224Z,64.40
2018-01-12T10:09:29.338Z,64.40
2018-01-12T10:10:30.450Z,64.00
2018-01-12T10:11:31.571Z,64.10
2018-01-12T10:12:32.658Z,64.30
2018-01-12T10:13:33.744Z,64.40
2018-01-12T10:14:34.830Z,64.10
2018-01-12T10:15:35.927Z,63.70
2018-01-12T10:16:37.011Z,63.90
2018-01-12T10:17:38.072Z,63.90
2018-01-12T10:18:41.112Z,63.90
2018-01-12T10:20:01.142Z,63.90
2018-01-12T10:22:35.843Z,63.40
2018-01-12T10:23:36.962Z,63.30
2018-01-12T10:24:38.035Z,63.50
2018-01-12T10:25:39.831Z,63.40
2018-01-12T10:26:40.898Z,63.40
2018-01-12T10:27:41.988Z,63.40
2018-01-12T10:28:55.427Z,63.30
2018-01-12T10:29:56.494Z,63.50
2018-01-12T10:30:58.306Z,63.90
2018-01-12T10:32:06.563Z,63.80
2018-01-12T10:33:13.795Z,63.90
2018-01-12T10:34:27.192Z,63.90
2018-01-12T10:35:29.139Z,63.70
2018-01-12T10:36:35.199Z,63.20
2018-01-12T10:37:36.294Z,63.40
2018-01-12T10:38:37.363Z,63.30
2018-01-12T10:39:50.887Z,63.50
2018-01-12T10:41:17.858Z,63.30
2018-01-12T10:42:18.932Z,63.20
2018-01-12T10:43:20.022Z,63.10
2018-01-12T10:44:21.087Z,63.10
2018-01-12T10:45:22.899Z,63.40
2018-01-12T10:46:36.379Z,63.40
2018-01-12T10:47:48.700Z,63.70
2018-01-12T10:48:55.666Z,63.40
2018-01-12T10:50:17.387Z,63.40
2018-01-12T10:51:30.811Z,63.60
2018-01-12T10:52:36.890Z,63.40
2018-01-12T10:53:37.987Z,63.40
2018-01-12T10:54:39.071Z,63.50
2018-01-12T10:55:40.919Z,63.20
2018-01-12T10:56:42.738Z,63.30
2018-01-12T10:57:43.811Z,63.20
2018-01-12T10:58:45.606Z,63.70
2018-01-12T10:59:46.671Z,63.70
2018-01-12T11:00:47.758Z,63.30
2018-01-12T11:01:48.822Z,63.30
2018-01-12T11:02:49.877Z,63.40
2018-01-12T11:04:04.107Z,63.30
2018-01-12T11:05:06.486Z,63.70
2018-01-12T11:06:15.194Z,63.00
2018-01-12T11:07:16.270Z,63.00
2018-01-12T11:08:17.343Z,63.10
2018-01-12T11:09:18.390Z,63.00
2018-01-12T11:10:19.511Z,63.30
2018-01-12T11:11:21.335Z,63.50
2018-01-12T11:12:22.499Z,62.80
2018-01-12T11:13:23.561Z,62.60
2018-01-12T11:14:24.612Z,62.60
2018-01-12T11:15:25.693Z,62.80
2018-01-12T11:16:27.498Z,62.70
2018-01-12T11:17:28.566Z,62.70
2018-01-12T11:18:30.408Z,62.10
2018-01-12T11:19:31.473Z,62.10
2018-01-12T11:20:33.287Z,62.30
2018-01-12T11:21:34.355Z,62.30
2018-01-12T11:22:35.410Z,62.40
2018-01-12T11:23:36.474Z,62.40
2018-01-12T11:24:37.530Z,62.70
2018-01-12T11:25:38.594Z,62.70
2018-01-12T11:26:39.663Z,62.80
2018-01-12T11:27:40.722Z,62.90
2018-01-12T11:28:41.786Z,62.90
2018-01-12T11:29:43.643Z,63.20
2018-01-12T11:30:44.699Z,62.80
2018-01-12T11:31:45.804Z,62.60
2018-01-12T11:32:46.867Z,62.80
2018-01-12T11:33:47.926Z,62.30
2018-01-12T11:34:48.982Z,62.80
2018-01-12T11:35:50.806Z,62.80
2018-01-12T11:36:51.871Z,62.80
2018-01-12T11:37:52.971Z,62.80
2018-01-12T11:38:54.078Z,62.80
2018-01-12T11:39:55.148Z,62.60
2018-01-12T11:40:56.222Z,62.50
2018-01-12T11:41:57.305Z,62.50
2018-01-12T11:42:59.114Z,63.00
2018-01-12T11:44:00.209Z,63.00
2018-01-12T11:45:02.010Z,62.80
2018-01-12T11:46:03.080Z,62.90
2018-01-12T11:47:04.882Z,62.80
2018-01-12T11:48:06.977Z,62.70
2018-01-12T11:49:08.786Z,62.80
2018-01-12T11:50:09.834Z,62.80
2018-01-12T11:51:10.911Z,63.10
2018-01-12T11:52:12.740Z,63.10
2018-01-12T11:53:13.807Z,63.10
2018-01-12T11:54:14.866Z,63.20
2018-01-12T11:55:15.915Z,63.00
2018-01-12T11:56:16.969Z,62.80
2018-01-12T11:57:18.784Z,62.90
2018-01-12T11:58:19.861Z,62.90
2018-01-12T11:59:21.694Z,62.90
2018-01-12T12:00:22.783Z,62.80
2018-01-12T12:01:23.862Z,63.40
2018-01-12T12:02:24.919Z,63.50
2018-01-12T12:03:25.979Z,63.40
2018-01-12T12:04:27.057Z,63.70
2018-01-12T12:05:28.866Z,62.90
2018-01-12T12:06:29.922Z,62.90
2018-01-12T12:07:32.011Z,62.90
2018-01-12T12:08:33.071Z,62.90
2018-01-12T12:09:34.134Z,62.80
2018-01-12T12:10:35.199Z,62.90
2018-01-12T12:11:37.026Z,62.60
2018-01-12T12:12:38.086Z,62.60
2018-01-12T12:13:39.886Z,62.70
2018-01-12T12:14:40.972Z,62.60
2018-01-12T12:15:42.824Z,62.60
2018-01-12T12:16:43.911Z,62.50
2018-01-12T12:17:44.976Z,62.50
2018-01-12T12:18:46.783Z,62.40
2018-01-12T12:19:47.886Z,62.30
2018-01-12T12:20:48.958Z,62.70
2018-01-12T12:21:50.031Z,62.80
2018-01-12T12:22:51.107Z,61.90
2018-01-12T12:23:52.180Z,62.40
2018-01-12T12:24:53.288Z,63.10
2018-01-12T12:25:54.352Z,63.00
2018-01-12T12:26:56.171Z,63.00
2018-01-12T12:27:57.255Z,62.90
2018-01-12T12:28:58.334Z,62.90
2018-01-12T12:29:59.424Z,63.00
2018-01-12T12:31:00.495Z,62.70
2018-01-12T12:32:01.647Z,62.80
2018-01-12T12:33:02.714Z,63.10
2018-01-12T12:34:03.784Z,63.10
2018-01-12T12:35:04.882Z,63.10
2018-01-12T12:36:05.960Z,63.20
2018-01-12T12:37:07.824Z,63.10
2018-01-12T12:38:08.920Z,63.10
2018-01-12T12:39:09.979Z,63.20
2018-01-12T12:40:11.058Z,63.20
2018-01-12T12:41:12.150Z,63.60
2018-01-12T12:42:13.239Z,63.40
2018-01-12T12:43:14.319Z,63.70
2018-01-12T12:44:15.402Z,63.60
2018-01-12T12:45:16.470Z,64.00
2018-01-12T12:46:17.550Z,63.80
2018-01-12T12:47:18.679Z,63.70
2018-01-12T12:48:19.762Z,63.60
2018-01-12T12:49:20.834Z,63.90
2018-01-12T12:50:21.928Z,64.20
2018-01-12T12:51:23.011Z,63.90
2018-01-12T12:52:24.090Z,63.70
2018-01-12T12:53:25.167Z,63.60
2018-01-12T12:54:26.976Z,64.50
2018-01-12T12:55:28.051Z,63.70
2018-01-12T12:56:29.138Z,63.90
2018-01-12T12:57:30.233Z,63.80
2018-01-12T12:58:31.332Z,63.50
2018-01-12T12:59:32.406Z,63.30
2018-01-12T13:00:33.507Z,63.70
2018-01-12T13:01:35.339Z,63.70
2018-01-12T13:02:36.427Z,63.60
2018-01-12T13:03:44.514Z,63.60
2018-01-12T13:04:45.602Z,63.30
2018-01-12T13:05:47.414Z,63.70
2018-01-12T13:06:48.477Z,63.70
2018-01-12T13:07:49.579Z,63.70
2018-01-12T13:08:50.655Z,63.50
2018-01-12T13:09:51.722Z,63.10
2018-01-12T13:10:52.788Z,63.20
2018-01-12T13:11:53.906Z,63.00
2018-01-12T13:12:55.008Z,63.00
2018-01-12T13:13:56.092Z,63.60
2018-01-12T13:14:57.173Z,63.30
2018-01-12T13:15:58.264Z,63.40
2018-01-12T13:17:14.899Z,62.90
2018-01-12T13:18:16.975Z,63.40
2018-01-12T13:19:18.050Z,63.30